Time;durP1;ratioP1;P1;durP2;ratioP2;P2;SDS_P1;SDS_P2;PMS_P1;PMS_P2;Temp;Humidity;BMP_temperature;BMP_pressure;BME280_temperature;BME280_humidity;BME280_pressure;Samples;Min_cycle;Max_cycle;Signal;HPM_P1;HPM_P2
2023/05/19 00:01:00;;;;;;;7.47;4.00;;;;;;;;;;5034015;28;20046;-73
2023/05/19 00:03:26;;;;;;;9.20;4.55;;;;;;;;;;5018881;28;20049;-73
2023/05/19 00:05:53;;;;;;;7.10;4.10;;;;;;;;;;4980834;28;20050;-73
2023/05/19 00:08:19;;;;;;;8.07;4.05;;;;;;;;;;4996817;28;20050;-73
2023/05/19 00:10:45;;;;;;;8.10;4.00;;;;;;;;;;5022502;28;20385;-73
2023/05/19 00:13:12;;;;;;;8.85;4.35;;;;;;;;;;5023108;28;20050;-73
2023/05/19 00:15:38;;;;;;;9.18;3.83;;;;;;;;;;5025334;28;20427;-73
2023/05/19 00:18:07;;;;;;;8.75;3.92;;;;;;;;;;5035431;28;20045;-73
2023/05/19 00:20:33;;;;;;;9.57;3.97;;;;;;;;;;5019696;28;20056;-73
2023/05/19 00:22:59;;;;;;;8.10;3.67;;;;;;;;;;5038059;28;20095;-73
2023/05/19 00:25:26;;;;;;;7.72;3.78;;;;;;;;;;5005990;28;20081;-73
2023/05/19 00:27:52;;;;;;;8.57;3.88;;;;;;;;;;5019412;28;20519;-73
2023/05/19 00:30:21;;;;;;;10.13;4.28;;;;;;;;;;5014110;28;20472;-73
2023/05/19 00:32:47;;;;;;;9.05;4.13;;;;;;;;;;5013716;28;20045;-73
2023/05/19 00:35:13;;;;;;;10.43;4.40;;;;;;;;;;5015525;28;20099;-73
2023/05/19 00:37:39;;;;;;;8.68;4.70;;;;;;;;;;5033538;28;20045;-73
2023/05/19 00:40:06;;;;;;;10.00;4.20;;;;;;;;;;5031983;28;20321;-73
2023/05/19 00:42:32;;;;;;;11.32;3.92;;;;;;;;;;5029780;28;20120;-73
2023/05/19 00:44:58;;;;;;;7.45;4.05;;;;;;;;;;5033177;28;20508;-73
2023/05/19 00:47:24;;;;;;;9.00;4.05;;;;;;;;;;5033334;28;20140;-73
2023/05/19 00:49:50;;;;;;;10.20;4.10;;;;;;;;;;4999450;28;20045;-73
2023/05/19 00:52:16;;;;;;;8.35;3.80;;;;;;;;;;5015715;28;20392;-73
2023/05/19 00:54:43;;;;;;;10.07;4.32;;;;;;;;;;5032989;28;20041;-73
2023/05/19 00:57:10;;;;;;;6.30;3.70;;;;;;;;;;5027272;28;20471;-73
2023/05/19 00:59:36;;;;;;;8.75;4.20;;;;;;;;;;5032629;28;20143;-73
2023/05/19 01:02:02;;;;;;;6.53;3.45;;;;;;;;;;5033248;28;20046;-73
2023/05/19 01:04:28;;;;;;;7.88;3.60;;;;;;;;;;5033300;28;20049;-73
2023/05/19 01:06:55;;;;;;;7.30;3.80;;;;;;;;;;5033297;28;20523;-73
2023/05/19 01:09:21;;;;;;;7.93;3.80;;;;;;;;;;5013246;28;20049;-73
2023/05/19 01:11:51;;;;;;;8.25;3.60;;;;;;;;;;5042646;28;20063;-73
2023/05/19 01:14:18;;;;;;;10.40;4.05;;;;;;;;;;5036455;28;20376;-73
2023/05/19 01:16:50;;;;;;;8.52;3.92;;;;;;;;;;5036139;28;20094;-73
2023/05/19 01:19:35;;;;;;;6.60;3.53;;;;;;;;;;5052140;28;20418;-73
2023/05/19 01:22:11;;;;;;;9.07;3.72;;;;;;;;;;5033165;28;20361;-73
2023/05/19 01:24:38;;;;;;;;;;;;;;;;;;5040744;28;20045;-73
2023/05/19 01:27:04;;;;;;;8.25;3.70;;;;;;;;;;5036301;28;19967;-73
2023/05/19 01:29:36;;;;;;;7.60;3.80;;;;;;;;;;5032976;28;20046;-73
2023/05/19 01:32:03;;;;;;;9.40;3.85;;;;;;;;;;5032869;28;20534;-73
2023/05/19 01:34:30;;;;;;;8.52;4.22;;;;;;;;;;5041634;28;20106;-73
2023/05/19 01:36:57;;;;;;;11.80;4.63;;;;;;;;;;5052639;28;20490;-73
2023/05/19 01:39:24;;;;;;;15.38;4.35;;;;;;;;;;5051932;28;20055;-73
2023/05/19 01:41:51;;;;;;;8.88;4.75;;;;;;;;;;5043266;28;20037;-73
2023/05/19 01:44:18;;;;;;;9.57;4.40;;;;;;;;;;5051916;28;20052;-73
2023/05/19 01:46:44;;;;;;;8.70;4.20;;;;;;;;;;5052913;28;20049;-73
2023/05/19 01:49:11;;;;;;;8.27;4.00;;;;;;;;;;5052821;28;20045;-73
2023/05/19 01:51:37;;;;;;;8.00;3.63;;;;;;;;;;5034552;28;20491;-73
2023/05/19 01:54:03;;;;;;;8.02;3.58;;;;;;;;;;5044323;28;20048;-73
2023/05/19 01:56:40;;;;;;;8.55;3.30;;;;;;;;;;5047982;28;20372;-73
2023/05/19 01:59:14;;;;;;;4.75;3.10;;;;;;;;;;5033345;28;20041;-73
2023/05/19 02:01:50;;;;;;;3.55;2.00;;;;;;;;;;5039021;28;20045;-73
2023/05/19 02:04:20;;;;;;;4.22;2.05;;;;;;;;;;5036483;28;20049;-73
2023/05/19 02:06:53;;;;;;;2.10;1.90;;;;;;;;;;5018278;28;20061;-73
2023/05/19 02:09:23;;;;;;;5.50;2.28;;;;;;;;;;5049933;28;20121;-73
2023/05/19 02:11:58;;;;;;;6.72;2.75;;;;;;;;;;5036071;28;20151;-73
2023/05/19 02:14:34;;;;;;;4.28;2.60;;;;;;;;;;5039833;28;20411;-73
2023/05/19 02:17:03;;;;;;;4.63;2.95;;;;;;;;;;5037277;28;20464;-73
2023/05/19 02:19:34;;;;;;;5.05;3.10;;;;;;;;;;5052346;28;20568;-73
2023/05/19 02:22:00;;;;;;;5.50;3.13;;;;;;;;;;5054797;28;20521;-73
2023/05/19 02:24:26;;;;;;;8.07;3.60;;;;;;;;;;5051273;28;20110;-73
2023/05/19 02:26:53;;;;;;;5.25;3.30;;;;;;;;;;5056464;28;20045;-73
2023/05/19 02:29:19;;;;;;;6.85;3.13;;;;;;;;;;5039013;28;20203;-73
2023/05/19 02:31:45;;;;;;;5.78;3.30;;;;;;;;;;5035225;28;20055;-73
2023/05/19 02:34:11;;;;;;;4.85;3.28;;;;;;;;;;5056078;28;20132;-73
2023/05/19 02:36:42;;;;;;;8.10;3.55;;;;;;;;;;5038038;28;20049;-73
2023/05/19 02:39:09;;;;;;;4.35;2.33;;;;;;;;;;5046521;28;20057;-73
2023/05/19 02:41:35;;;;;;;4.18;2.13;;;;;;;;;;5045887;28;20125;-73
2023/05/19 02:44:01;;;;;;;2.30;1.90;;;;;;;;;;5056254;28;20044;-73
2023/05/19 02:46:27;;;;;;;4.25;2.00;;;;;;;;;;5054233;28;20333;-73
2023/05/19 02:48:53;;;;;;;2.38;1.70;;;;;;;;;;5055930;28;20040;-73
2023/05/19 02:51:21;;;;;;;2.88;2.08;;;;;;;;;;5054432;28;20059;-73
2023/05/19 02:53:47;;;;;;;4.18;2.30;;;;;;;;;;5054431;28;20136;-73
2023/05/19 02:56:13;;;;;;;2.67;2.20;;;;;;;;;;5055522;28;20060;-73
2023/05/19 02:58:41;;;;;;;6.90;2.30;;;;;;;;;;5036846;28;20057;-73
2023/05/19 03:01:08;;;;;;;5.13;2.30;;;;;;;;;;5035225;28;20046;-73
2023/05/19 03:03:34;;;;;;;2.17;1.73;;;;;;;;;;5054854;28;20549;-73
2023/05/19 03:06:00;;;;;;;3.15;2.20;;;;;;;;;;5055037;28;20565;-73
2023/05/19 03:08:26;;;;;;;7.40;2.50;;;;;;;;;;5053245;28;20048;-73
2023/05/19 03:10:53;;;;;;;4.97;2.72;;;;;;;;;;5031443;28;20061;-73
2023/05/19 03:13:19;;;;;;;7.35;2.80;;;;;;;;;;5023403;28;20053;-73
2023/05/19 03:15:46;;;;;;;7.85;3.72;;;;;;;;;;5020555;28;20038;-73
2023/05/19 03:18:12;;;;;;;5.68;2.90;;;;;;;;;;5028362;28;20057;-73
2023/05/19 03:20:38;;;;;;;6.25;3.53;;;;;;;;;;5034975;28;20052;-73
2023/05/19 03:23:05;;;;;;;7.40;3.30;;;;;;;;;;5035065;28;20081;-73
2023/05/19 03:25:31;;;;;;;5.97;3.50;;;;;;;;;;5036227;28;20053;-73
2023/05/19 03:27:57;;;;;;;8.98;3.55;;;;;;;;;;5037455;28;20049;-72
2023/05/19 03:30:23;;;;;;;5.75;3.53;;;;;;;;;;5015701;28;20129;-73
2023/05/19 03:32:50;;;;;;;7.03;3.33;;;;;;;;;;5016487;28;20037;-72
2023/05/19 03:35:17;;;;;;;9.27;3.65;;;;;;;;;;5013880;28;20500;-73
2023/05/19 03:37:43;;;;;;;9.07;4.55;;;;;;;;;;5015441;28;20124;-73
2023/05/19 03:40:09;;;;;;;6.22;3.40;;;;;;;;;;5014923;28;20086;-73
2023/05/19 03:42:35;;;;;;;6.90;3.90;;;;;;;;;;5014920;28;20396;-73
2023/05/19 03:45:02;;;;;;;10.23;4.15;;;;;;;;;;5022027;28;20046;-73
2023/05/19 03:47:28;;;;;;;7.80;4.32;;;;;;;;;;5030106;28;20117;-73
2023/05/19 03:49:54;;;;;;;14.82;4.38;;;;;;;;;;5028455;28;20045;-73
2023/05/19 03:52:20;;;;;;;12.07;4.70;;;;;;;;;;5016803;28;20050;-73
2023/05/19 03:54:46;;;;;;;10.93;4.78;;;;;;;;;;5000235;28;20048;-73
2023/05/19 03:57:13;;;;;;;11.32;4.30;;;;;;;;;;5034421;28;20046;-73
2023/05/19 03:59:40;;;;;;;10.65;3.80;;;;;;;;;;5033698;28;20037;-73
2023/05/19 04:02:06;;;;;;;8.73;2.63;;;;;;;;;;5019330;28;20468;-73
2023/05/19 04:04:32;;;;;;;4.95;2.55;;;;;;;;;;5033278;28;20125;-73
2023/05/19 04:06:58;;;;;;;8.60;3.30;;;;;;;;;;5033181;28;20065;-73
2023/05/19 04:09:24;;;;;;;4.97;3.25;;;;;;;;;;5010224;28;20490;-73
2023/05/19 04:11:50;;;;;;;6.93;2.92;;;;;;;;;;5030789;28;20052;-73
2023/05/19 04:14:18;;;;;;;8.38;3.28;;;;;;;;;;5014531;28;20049;-73
2023/05/19 04:16:44;;;;;;;7.30;3.42;;;;;;;;;;5016011;28;20125;-73
2023/05/19 04:19:10;;;;;;;7.53;4.25;;;;;;;;;;5032995;28;20045;-73
2023/05/19 04:21:36;;;;;;;13.50;4.70;;;;;;;;;;5033596;28;20136;-73
2023/05/19 04:24:05;;;;;;;11.98;4.38;;;;;;;;;;5026428;28;20179;-73
2023/05/19 04:26:32;;;;;;;11.50;4.50;;;;;;;;;;5031472;28;20102;-73
2023/05/19 04:28:58;;;;;;;10.85;4.75;;;;;;;;;;5033931;28;20049;-73
2023/05/19 04:31:26;;;;;;;8.43;4.45;;;;;;;;;;5031281;28;20125;-73
2023/05/19 04:33:52;;;;;;;9.75;4.78;;;;;;;;;;5033074;28;20151;-73
2023/05/19 04:36:20;;;;;;;8.68;4.32;;;;;;;;;;5032673;28;20052;-73
2023/05/19 04:38:46;;;;;;;5.93;3.80;;;;;;;;;;5027326;28;20061;-73
2023/05/19 04:41:15;;;;;;;5.63;3.47;;;;;;;;;;5012560;28;20132;-73
2023/05/19 04:43:43;;;;;;;10.18;4.20;;;;;;;;;;5013997;28;20045;-73
2023/05/19 04:46:12;;;;;;;6.68;3.53;;;;;;;;;;5015287;28;20529;-73
2023/05/19 04:48:39;;;;;;;8.60;3.92;;;;;;;;;;5033435;28;20103;-73
2023/05/19 04:51:06;;;;;;;9.30;4.40;;;;;;;;;;5010362;28;20136;-73
2023/05/19 04:53:32;;;;;;;9.38;4.60;;;;;;;;;;5014074;28;20084;-73
2023/05/19 04:56:02;;;;;;;10.23;4.40;;;;;;;;;;5014008;28;20153;-73
2023/05/19 04:58:28;;;;;;;6.75;4.10;;;;;;;;;;5031401;28;20049;-73
2023/05/19 05:00:55;;;;;;;10.48;4.03;;;;;;;;;;5032699;28;20048;-73
2023/05/19 05:03:24;;;;;;;8.88;4.50;;;;;;;;;;5033001;28;20064;-73
2023/05/19 05:05:51;;;;;;;8.32;4.78;;;;;;;;;;5014966;28;20047;-74
2023/05/19 05:08:22;;;;;;;12.10;5.40;;;;;;;;;;5014945;28;20084;-73
2023/05/19 05:10:51;;;;;;;17.23;5.40;;;;;;;;;;5014869;28;20457;-73
2023/05/19 05:13:18;;;;;;;13.75;5.63;;;;;;;;;;5044827;28;20064;-74
2023/05/19 05:15:45;;;;;;;10.52;5.00;;;;;;;;;;5030815;28;20119;-73
2023/05/19 05:18:11;;;;;;;15.07;6.30;;;;;;;;;;5033020;28;20046;-74
2023/05/19 05:20:37;;;;;;;14.63;6.00;;;;;;;;;;5010333;28;20042;-74
2023/05/19 05:23:03;;;;;;;16.60;6.43;;;;;;;;;;5013559;28;20038;-74
2023/05/19 05:25:29;;;;;;;16.25;5.88;;;;;;;;;;5013779;28;20054;-74
2023/05/19 05:27:57;;;;;;;20.02;6.10;;;;;;;;;;5013406;28;20321;-74
2023/05/19 05:30:23;;;;;;;17.67;6.85;;;;;;;;;;5011686;28;20050;-74
2023/05/19 05:32:50;;;;;;;19.05;6.38;;;;;;;;;;5033214;28;20049;-74
2023/05/19 05:35:16;;;;;;;13.38;6.50;;;;;;;;;;5032543;28;20046;-74
2023/05/19 05:37:42;;;;;;;13.70;6.03;;;;;;;;;;5032144;28;20042;-74
2023/05/19 05:40:08;;;;;;;18.25;7.50;;;;;;;;;;5019400;28;20048;-74
2023/05/19 05:42:34;;;;;;;15.50;6.45;;;;;;;;;;5003105;28;20057;-75
2023/05/19 05:45:00;;;;;;;13.50;6.40;;;;;;;;;;5036009;28;20113;-74
2023/05/19 05:47:26;;;;;;;17.17;7.15;;;;;;;;;;5036907;28;20045;-74
2023/05/19 05:49:52;;;;;;;17.85;5.93;;;;;;;;;;5036046;28;20372;-74
2023/05/19 05:52:21;;;;;;;14.93;6.28;;;;;;;;;;5015100;28;20477;-74
2023/05/19 05:54:47;;;;;;;20.67;6.68;;;;;;;;;;5034782;28;20046;-74
2023/05/19 05:57:13;;;;;;;19.05;6.22;;;;;;;;;;5036879;28;20102;-74
2023/05/19 05:59:39;;;;;;;14.70;6.88;;;;;;;;;;5019002;28;20288;-74
2023/05/19 06:02:06;;;;;;;14.15;6.15;;;;;;;;;;5034712;28;20535;-74
2023/05/19 06:04:32;;;;;;;18.30;6.22;;;;;;;;;;5034032;28;20045;-74
2023/05/19 06:07:00;;;;;;;14.23;5.95;;;;;;;;;;5036721;28;20345;-75
2023/05/19 06:09:27;;;;;;;13.07;5.72;;;;;;;;;;5029684;28;20728;-74
2023/05/19 06:11:53;;;;;;;11.43;5.60;;;;;;;;;;5037165;28;20061;-74
2023/05/19 06:14:19;;;;;;;11.88;5.70;;;;;;;;;;5036483;28;20053;-74
2023/05/19 06:16:47;;;;;;;10.57;5.82;;;;;;;;;;5043801;28;20103;-74
2023/05/19 06:19:13;;;;;;;12.00;5.68;;;;;;;;;;5035765;28;20049;-74
2023/05/19 06:21:41;;;;;;;12.40;5.40;;;;;;;;;;5053074;28;20051;-75
2023/05/19 06:24:07;;;;;;;12.45;5.82;;;;;;;;;;5037688;28;20052;-75
2023/05/19 06:26:33;;;;;;;11.27;5.05;;;;;;;;;;5031028;28;20411;-74
2023/05/19 06:29:00;;;;;;;9.57;5.40;;;;;;;;;;5037671;28;20044;-74
2023/05/19 06:31:26;;;;;;;12.57;5.57;;;;;;;;;;5041231;28;20041;-74
2023/05/19 06:33:52;;;;;;;14.98;5.38;;;;;;;;;;5044270;28;20056;-74
2023/05/19 06:36:18;;;;;;;14.40;5.40;;;;;;;;;;5036509;28;20139;-74
2023/05/19 06:38:44;;;;;;;16.70;5.93;;;;;;;;;;5039461;28;20041;-74
2023/05/19 06:41:11;;;;;;;14.13;5.38;;;;;;;;;;5038141;28;20042;-73
2023/05/19 06:43:37;;;;;;;13.18;5.43;;;;;;;;;;5038403;28;20045;-74
2023/05/19 06:46:03;;;;;;;10.75;5.40;;;;;;;;;;5055797;28;20090;-74
2023/05/19 06:48:29;;;;;;;12.60;4.80;;;;;;;;;;5046339;28;20124;-74
2023/05/19 06:50:55;;;;;;;10.65;5.00;;;;;;;;;;5039351;28;20037;-74
2023/05/19 06:53:21;;;;;;;11.30;5.70;;;;;;;;;;5024928;28;20066;-74
2023/05/19 06:55:50;;;;;;;9.85;5.47;;;;;;;;;;5035164;28;20041;-74
2023/05/19 06:58:16;;;;;;;11.98;5.22;;;;;;;;;;5035982;28;20038;-74
2023/05/19 07:00:42;;;;;;;7.97;4.82;;;;;;;;;;5035989;28;20041;-74
2023/05/19 07:03:08;;;;;;;8.63;5.68;;;;;;;;;;5041694;28;20384;-74
2023/05/19 07:05:34;;;;;;;11.73;5.13;;;;;;;;;;5041354;28;20056;-77
2023/05/19 07:08:00;;;;;;;11.02;5.50;;;;;;;;;;5039768;28;20372;-75
2023/05/19 07:10:27;;;;;;;8.50;4.90;;;;;;;;;;5041091;28;20496;-75
2023/05/19 07:12:53;;;;;;;9.45;4.93;;;;;;;;;;5035216;28;20488;-77
2023/05/19 07:15:19;;;;;;;10.73;5.15;;;;;;;;;;5034967;28;20120;-75
2023/05/19 07:17:45;;;;;;;10.50;5.00;;;;;;;;;;5034875;28;20526;-75
2023/05/19 07:20:11;;;;;;;10.60;5.35;;;;;;;;;;5051587;28;20953;-75
2023/05/19 07:22:38;;;;;;;10.80;4.78;;;;;;;;;;5049410;28;20447;-75
2023/05/19 07:25:05;;;;;;;10.82;5.57;;;;;;;;;;5039299;28;20037;-74
2023/05/19 07:27:31;;;;;;;9.80;5.00;;;;;;;;;;5053286;28;20041;-74
2023/05/19 07:29:57;;;;;;;14.50;5.13;;;;;;;;;;5055046;28;20402;-75
2023/05/19 07:32:23;;;;;;;8.10;4.68;;;;;;;;;;5044963;28;20471;-74
2023/05/19 07:34:49;;;;;;;9.15;4.57;;;;;;;;;;5051950;28;20045;-74
2023/05/19 07:37:15;;;;;;;8.52;4.82;;;;;;;;;;5034675;28;20116;-74
2023/05/19 07:39:42;;;;;;;8.93;5.18;;;;;;;;;;5037235;28;20398;-75
2023/05/19 07:42:08;;;;;;;10.95;4.47;;;;;;;;;;5053698;28;20045;-74
2023/05/19 07:44:34;;;;;;;9.32;4.40;;;;;;;;;;5047054;28;20435;-74
2023/05/19 07:47:00;;;;;;;9.35;3.97;;;;;;;;;;5051821;28;20488;-74
2023/05/19 07:49:26;;;;;;;7.95;4.18;;;;;;;;;;5037879;28;20491;-74
2023/05/19 07:51:52;;;;;;;7.57;4.10;;;;;;;;;;5034376;28;20492;-74
2023/05/19 07:54:18;;;;;;;9.25;4.40;;;;;;;;;;5039909;28;20037;-74
2023/05/19 07:56:45;;;;;;;8.85;4.53;;;;;;;;;;5035139;28;20091;-74
2023/05/19 07:59:11;;;;;;;10.13;4.60;;;;;;;;;;5035775;28;20052;-74
2023/05/19 08:01:37;;;;;;;9.43;4.43;;;;;;;;;;5028959;28;20049;-74
2023/05/19 08:04:03;;;;;;;12.00;4.28;;;;;;;;;;5018532;28;20074;-78
2023/05/19 08:06:30;;;;;;;9.45;3.90;;;;;;;;;;5048025;28;20120;-73
2023/05/19 08:08:56;;;;;;;9.00;4.38;;;;;;;;;;5046540;28;20048;-74
2023/05/19 08:11:22;;;;;;;7.75;3.90;;;;;;;;;;5042479;28;20062;-77
2023/05/19 08:13:48;;;;;;;9.80;4.13;;;;;;;;;;5007758;28;20132;-78
2023/05/19 08:16:17;;;;;;;10.93;4.07;;;;;;;;;;4999317;28;20045;-76
2023/05/19 08:18:43;;;;;;;6.85;4.00;;;;;;;;;;5017691;28;20041;-74
2023/05/19 08:21:09;;;;;;;7.90;3.97;;;;;;;;;;5034664;28;20792;-74
2023/05/19 08:23:36;;;;;;;7.95;4.10;;;;;;;;;;5044335;28;20045;-74
2023/05/19 08:26:02;;;;;;;7.47;4.05;;;;;;;;;;5048568;28;20041;-74
2023/05/19 08:28:28;;;;;;;7.15;4.10;;;;;;;;;;5047726;28;20124;-75
2023/05/19 08:30:54;;;;;;;7.43;3.72;;;;;;;;;;5050897;28;20374;-75
2023/05/19 08:33:21;;;;;;;6.82;3.47;;;;;;;;;;5038834;28;20103;-75
2023/05/19 08:35:48;;;;;;;8.43;3.85;;;;;;;;;;5053243;28;20045;-74
2023/05/19 08:38:16;;;;;;;9.63;3.90;;;;;;;;;;5053248;28;20041;-74
2023/05/19 08:40:42;;;;;;;9.65;3.72;;;;;;;;;;5045815;28;20167;-75
2023/05/19 08:43:10;;;;;;;7.63;3.60;;;;;;;;;;5051648;28;20056;-74
2023/05/19 08:45:37;;;;;;;8.77;4.30;;;;;;;;;;5052136;28;20088;-75
2023/05/19 08:48:03;;;;;;;10.93;4.30;;;;;;;;;;5052973;28;20049;-75
2023/05/19 08:50:31;;;;;;;9.80;3.60;;;;;;;;;;5052935;28;20128;-74
2023/05/19 08:53:18;;;;;;;7.55;3.85;;;;;;;;;;5033575;28;20056;-74
2023/05/19 08:55:47;;;;;;;6.65;3.88;;;;;;;;;;5043841;28;20037;-74
2023/05/19 08:58:15;;;;;;;9.43;4.25;;;;;;;;;;5042244;28;20045;-74
2023/05/19 09:00:41;;;;;;;6.40;3.70;;;;;;;;;;5052087;28;20143;-74
2023/05/19 09:03:07;;;;;;;8.98;4.07;;;;;;;;;;5051178;28;20052;-75
2023/05/19 09:05:34;;;;;;;6.82;3.97;;;;;;;;;;5035043;28;20037;-74
2023/05/19 09:08:01;;;;;;;6.82;3.97;;;;;;;;;;5039568;28;20587;-74
2023/05/19 09:10:27;;;;;;;9.35;4.32;;;;;;;;;;5025088;28;20053;-75
2023/05/19 09:12:53;;;;;;;5.30;3.42;;;;;;;;;;5051789;28;20048;-74
2023/05/19 09:15:19;;;;;;;5.50;3.30;;;;;;;;;;5042938;28;20357;-75
2023/05/19 09:17:49;;;;;;;7.32;3.42;;;;;;;;;;5047795;28;20063;-75
2023/05/19 09:20:16;;;;;;;6.63;3.60;;;;;;;;;;5025451;28;20033;-75
2023/05/19 09:22:46;;;;;;;5.15;3.28;;;;;;;;;;5040858;28;20379;-75
2023/05/19 09:25:25;;;;;;;9.00;3.88;;;;;;;;;;5022705;28;20095;-75
2023/05/19 09:27:53;;;;;;;6.47;3.80;;;;;;;;;;5045214;28;20095;-75
2023/05/19 09:30:20;;;;;;;6.32;3.42;;;;;;;;;;5042415;28;20071;-75
2023/05/19 09:32:46;;;;;;;6.22;3.55;;;;;;;;;;5039262;28;20061;-75
2023/05/19 09:35:15;;;;;;;9.15;3.40;;;;;;;;;;5038799;28;20087;-75
2023/05/19 09:37:42;;;;;;;6.00;3.70;;;;;;;;;;5052792;28;20041;-76
2023/05/19 09:40:13;;;;;;;5.95;3.42;;;;;;;;;;5048005;28;20041;-75
2023/05/19 09:42:40;;;;;;;6.65;3.72;;;;;;;;;;5037794;28;20104;-75
2023/05/19 09:45:06;;;;;;;6.82;3.15;;;;;;;;;;5027878;28;20048;-74
2023/05/19 09:47:34;;;;;;;9.95;3.97;;;;;;;;;;5042095;28;20072;-74
2023/05/19 09:50:00;;;;;;;7.03;3.22;;;;;;;;;;5034550;28;20125;-74
2023/05/19 09:52:27;;;;;;;8.75;3.50;;;;;;;;;;5042802;28;20114;-74
2023/05/19 09:54:54;;;;;;;6.47;3.33;;;;;;;;;;5045379;28;20065;-76
2023/05/19 09:57:27;;;;;;;8.60;3.70;;;;;;;;;;5047982;28;20049;-75
2023/05/19 09:59:55;;;;;;;6.78;3.80;;;;;;;;;;5053058;28;20048;-74
2023/05/19 10:02:24;;;;;;;8.50;3.70;;;;;;;;;;5050967;28;20053;-74
2023/05/19 10:04:51;;;;;;;6.32;3.38;;;;;;;;;;5035098;28;20129;-75
2023/05/19 10:07:18;;;;;;;8.00;3.30;;;;;;;;;;5051933;28;20052;-75
2023/05/19 10:09:45;;;;;;;6.53;3.42;;;;;;;;;;5048833;28;20041;-75
2023/05/19 10:12:11;;;;;;;7.38;3.70;;;;;;;;;;5033860;28;20064;-75
2023/05/19 10:14:38;;;;;;;6.82;3.90;;;;;;;;;;5051216;28;20047;-75
2023/05/19 10:17:04;;;;;;;6.47;3.60;;;;;;;;;;5050613;28;20372;-75
2023/05/19 10:19:30;;;;;;;6.78;3.90;;;;;;;;;;5052532;28;20045;-75
2023/05/19 10:21:56;;;;;;;7.40;3.95;;;;;;;;;;5030802;28;20045;-74
2023/05/19 10:24:22;;;;;;;8.63;4.30;;;;;;;;;;5049736;28;20049;-75
2023/05/19 10:26:48;;;;;;;8.60;3.88;;;;;;;;;;5031116;28;20171;-75
2023/05/19 10:29:15;;;;;;;8.65;4.20;;;;;;;;;;5054082;28;20124;-75
2023/05/19 10:31:41;;;;;;;11.57;4.25;;;;;;;;;;5054035;28;20120;-75
2023/05/19 10:34:20;;;;;;;9.15;4.38;;;;;;;;;;5054215;28;20406;-75
2023/05/19 10:36:55;;;;;;;8.50;4.35;;;;;;;;;;5035867;28;20053;-77
2023/05/19 10:39:29;;;;;;;8.52;3.75;;;;;;;;;;5049624;28;20056;-74
2023/05/19 10:42:18;;;;;;;7.40;3.78;;;;;;;;;;5049875;28;20057;-75
2023/05/19 10:44:53;;;;;;;6.88;3.40;;;;;;;;;;5047827;28;20049;-75
2023/05/19 10:47:23;;;;;;;8.17;3.67;;;;;;;;;;5055036;28;20037;-75
2023/05/19 10:49:55;;;;;;;7.15;3.30;;;;;;;;;;5051709;28;20767;-75
2023/05/19 10:52:24;;;;;;;6.75;3.72;;;;;;;;;;5034674;28;20048;-75
2023/05/19 10:54:53;;;;;;;7.07;3.38;;;;;;;;;;5055920;28;20053;-75
2023/05/19 10:57:19;;;;;;;7.45;3.60;;;;;;;;;;5055449;28;20045;-75
2023/05/19 10:59:46;;;;;;;9.52;3.40;;;;;;;;;;5055320;28;20372;-75
2023/05/19 11:02:31;;;;;;;7.82;3.60;;;;;;;;;;5050154;28;20045;-75
2023/05/19 11:05:07;;;;;;;9.43;3.40;;;;;;;;;;5051153;28;20403;-75
2023/05/19 11:07:33;;;;;;;8.57;3.15;;;;;;;;;;5051184;28;20432;-75
2023/05/19 11:09:59;;;;;;;7.00;3.15;;;;;;;;;;5051514;28;20088;-75
2023/05/19 11:12:25;;;;;;;5.10;2.90;;;;;;;;;;5045569;28;20053;-75
2023/05/19 11:14:54;;;;;;;9.20;3.30;;;;;;;;;;5055145;28;20048;-75
2023/05/19 11:17:22;;;;;;;6.18;3.40;;;;;;;;;;5051928;28;20037;-75
2023/05/19 11:19:55;;;;;;;8.02;3.83;;;;;;;;;;5037724;28;20049;-75
2023/05/19 11:22:25;;;;;;;9.20;3.90;;;;;;;;;;5053144;28;20047;-75
2023/05/19 11:24:53;;;;;;;8.30;3.88;;;;;;;;;;5055249;28;20052;-75
2023/05/19 11:27:19;;;;;;;7.22;3.67;;;;;;;;;;5034415;28;20479;-75
2023/05/19 11:29:45;;;;;;;7.97;4.45;;;;;;;;;;5035757;28;20048;-75
2023/05/19 11:32:12;;;;;;;6.63;3.70;;;;;;;;;;5054913;28;20053;-75
2023/05/19 11:34:38;;;;;;;6.40;3.20;;;;;;;;;;5041384;28;20132;-74
2023/05/19 11:37:05;;;;;;;8.73;3.80;;;;;;;;;;5045736;28;20034;-75
2023/05/19 11:39:32;;;;;;;5.88;3.25;;;;;;;;;;5047123;28;20176;-75
2023/05/19 11:41:58;;;;;;;9.20;4.32;;;;;;;;;;5047037;28;20075;-75
2023/05/19 11:44:24;;;;;;;5.70;3.55;;;;;;;;;;5036849;28;20094;-75
2023/05/19 11:46:50;;;;;;;6.78;3.38;;;;;;;;;;5054614;28;20037;-75
2023/05/19 11:49:39;;;;;;;9.82;4.00;;;;;;;;;;5054691;28;20055;-75
2023/05/19 11:52:12;;;;;;;8.75;3.95;;;;;;;;;;5047054;28;20045;-75
2023/05/19 11:54:40;;;;;;;6.00;3.80;;;;;;;;;;5007509;28;20475;-75
2023/05/19 11:57:08;;;;;;;8.27;3.38;;;;;;;;;;5039493;28;20511;-75
2023/05/19 11:59:34;;;;;;;7.93;3.63;;;;;;;;;;5054255;28;20495;-75
2023/05/19 12:02:04;;;;;;;7.72;3.53;;;;;;;;;;5053293;28;20049;-74
2023/05/19 12:04:30;;;;;;;6.10;3.63;;;;;;;;;;5048763;28;20049;-75
2023/05/19 12:06:56;;;;;;;8.45;3.47;;;;;;;;;;5032359;28;20052;-75
2023/05/19 12:09:23;;;;;;;7.63;3.60;;;;;;;;;;5044577;28;20037;-75
2023/05/19 12:11:51;;;;;;;9.75;3.22;;;;;;;;;;5051817;28;20057;-74
2023/05/19 12:14:18;;;;;;;7.82;3.42;;;;;;;;;;5039651;28;20093;-75
2023/05/19 12:16:44;;;;;;;7.97;4.10;;;;;;;;;;5053284;28;20479;-75
2023/05/19 12:19:10;;;;;;;7.75;3.40;;;;;;;;;;5053384;28;20044;-75
2023/05/19 12:21:36;;;;;;;7.28;4.07;;;;;;;;;;5050178;28;20041;-74
2023/05/19 12:24:02;;;;;;;8.43;4.10;;;;;;;;;;5044127;28;20131;-75
2023/05/19 12:26:28;;;;;;;5.85;3.58;;;;;;;;;;5034165;28;20038;-75
2023/05/19 12:28:54;;;;;;;7.28;3.90;;;;;;;;;;5034126;28;20133;-75
2023/05/19 12:31:24;;;;;;;5.30;3.78;;;;;;;;;;5033972;28;20049;-75
2023/05/19 12:33:50;;;;;;;11.48;4.15;;;;;;;;;;5034052;28;20041;-74
2023/05/19 12:36:17;;;;;;;7.05;4.20;;;;;;;;;;5036039;28;20076;-75
2023/05/19 12:38:44;;;;;;;9.23;4.57;;;;;;;;;;5044508;28;20535;-75
2023/05/19 12:41:13;;;;;;;6.93;4.20;;;;;;;;;;5045255;28;20055;-75
2023/05/19 12:43:40;;;;;;;7.88;4.15;;;;;;;;;;5033084;28;20056;-75
2023/05/19 12:46:14;;;;;;;9.25;4.88;;;;;;;;;;5033408;28;20073;-75
2023/05/19 12:48:43;;;;;;;8.52;4.88;;;;;;;;;;5053717;28;20053;-75
2023/05/19 12:51:10;;;;;;;7.25;4.88;;;;;;;;;;5038274;28;20079;-75
2023/05/19 12:53:38;;;;;;;6.13;4.30;;;;;;;;;;5035568;28;20523;-75
2023/05/19 12:56:12;;;;;;;10.52;4.88;;;;;;;;;;5041204;28;20049;-76
2023/05/19 12:58:38;;;;;;;9.35;4.68;;;;;;;;;;5014541;28;20049;-75
2023/05/19 13:01:06;;;;;;;7.85;4.32;;;;;;;;;;5033075;28;20045;-74
2023/05/19 13:03:32;;;;;;;8.23;4.65;;;;;;;;;;5035316;28;20128;-75
2023/05/19 13:05:58;;;;;;;8.70;4.53;;;;;;;;;;5033669;28;20091;-75
2023/05/19 13:08:24;;;;;;;9.20;4.85;;;;;;;;;;5017043;28;20451;-75
2023/05/19 13:10:50;;;;;;;13.18;4.70;;;;;;;;;;5030472;28;20128;-75
2023/05/19 13:13:17;;;;;;;8.68;4.65;;;;;;;;;;5055739;28;20041;-75
2023/05/19 13:15:44;;;;;;;12.57;4.50;;;;;;;;;;5056230;28;20037;-75
2023/05/19 13:18:10;;;;;;;8.65;4.13;;;;;;;;;;5057338;28;20045;-75
2023/05/19 13:20:37;;;;;;;7.88;4.43;;;;;;;;;;5041403;28;20112;-76
2023/05/19 13:23:04;;;;;;;7.55;3.95;;;;;;;;;;5032990;28;20116;-75
2023/05/19 13:25:32;;;;;;;8.57;4.45;;;;;;;;;;5035867;28;20045;-75
2023/05/19 13:28:00;;;;;;;8.88;3.97;;;;;;;;;;5049040;28;20063;-76
2023/05/19 13:30:26;;;;;;;8.60;4.53;;;;;;;;;;5034725;28;20088;-76
2023/05/19 13:32:53;;;;;;;6.65;4.18;;;;;;;;;;5023569;28;20053;-76
2023/05/19 13:35:19;;;;;;;8.05;4.35;;;;;;;;;;5034902;28;20049;-76
2023/05/19 13:37:45;;;;;;;9.15;4.55;;;;;;;;;;5068041;28;20386;-76
2023/05/19 13:40:11;;;;;;;13.00;4.78;;;;;;;;;;5051282;28;20049;-76
2023/05/19 13:42:37;;;;;;;9.10;4.40;;;;;;;;;;5052672;28;20041;-75
2023/05/19 13:45:04;;;;;;;8.55;4.30;;;;;;;;;;5052906;28;20373;-76
2023/05/19 13:47:30;;;;;;;11.00;4.60;;;;;;;;;;5034347;28;20561;-76
2023/05/19 13:49:56;;;;;;;8.68;5.28;;;;;;;;;;5042465;28;20132;-76
2023/05/19 13:52:22;;;;;;;12.13;5.00;;;;;;;;;;5033324;28;20111;-76
2023/05/19 13:54:49;;;;;;;11.00;4.55;;;;;;;;;;5052908;28;20045;-76
2023/05/19 13:57:15;;;;;;;9.50;5.20;;;;;;;;;;5053894;28;20051;-76
2023/05/19 13:59:41;;;;;;;10.70;5.38;;;;;;;;;;5055151;28;20067;-75
2023/05/19 14:02:07;;;;;;;10.13;5.28;;;;;;;;;;5049495;28;20539;-75
2023/05/19 14:04:37;;;;;;;8.98;4.60;;;;;;;;;;5036751;28;20179;-75
2023/05/19 14:07:04;;;;;;;10.70;5.28;;;;;;;;;;5055318;28;20475;-75
2023/05/19 14:09:30;;;;;;;10.52;4.90;;;;;;;;;;5050116;28;20055;-75
2023/05/19 14:11:56;;;;;;;8.32;4.10;;;;;;;;;;5045509;28;20049;-75
2023/05/19 14:14:22;;;;;;;8.07;4.50;;;;;;;;;;5036737;28;20096;-75
2023/05/19 14:16:49;;;;;;;9.88;4.45;;;;;;;;;;5042778;28;20045;-75
2023/05/19 14:19:15;;;;;;;9.32;4.13;;;;;;;;;;5055481;28;20059;-75
2023/05/19 14:21:41;;;;;;;8.38;4.40;;;;;;;;;;5037730;28;20052;-75
2023/05/19 14:24:07;;;;;;;7.40;4.50;;;;;;;;;;5053796;28;20128;-75
2023/05/19 14:26:33;;;;;;;13.52;4.38;;;;;;;;;;5052787;28;20094;-75
2023/05/19 14:28:59;;;;;;;10.10;4.38;;;;;;;;;;5055755;28;20049;-75
2023/05/19 14:31:25;;;;;;;8.15;4.80;;;;;;;;;;5055334;28;20048;-75
2023/05/19 14:33:51;;;;;;;9.48;4.00;;;;;;;;;;5055851;28;20037;-75
2023/05/19 14:36:17;;;;;;;10.57;4.10;;;;;;;;;;5055342;28;20056;-75
2023/05/19 14:38:43;;;;;;;10.38;4.40;;;;;;;;;;5043026;28;20041;-75
2023/05/19 14:41:09;;;;;;;7.32;4.13;;;;;;;;;;5055241;28;20376;-75